sensor_id;sensor_type;location;lat;lon;timestamp;P1;durP1;ratioP1;P2;durP2;ratioP2
33738;SDS011;20063;51.730;11.110;2023-05-02T00:02:03;12.32;;;5.97;;
33738;SDS011;20063;51.730;11.110;2023-05-02T00:04:28;12.85;;;5.05;;
33738;SDS011;20063;51.730;11.110;2023-05-02T00:06:54;7.80;;;5.22;;
33738;SDS011;20063;51.730;11.110;2023-05-02T00:09:20;14.57;;;6.00;;
33738;SDS011;20063;51.730;11.110;2023-05-02T00:11:45;21.88;;;6.20;;
33738;SDS011;20063;51.730;11.110;2023-05-02T00:14:11;9.82;;;4.93;;
33738;SDS011;20063;51.730;11.110;2023-05-02T00:16:36;19.88;;;5.57;;
33738;SDS011;20063;51.730;11.110;2023-05-02T00:19:03;10.68;;;5.15;;
33738;SDS011;20063;51.730;11.110;2023-05-02T00:21:28;11.13;;;5.15;;
33738;SDS011;20063;51.730;11.110;2023-05-02T00:23:56;9.55;;;5.53;;
33738;SDS011;20063;51.730;11.110;2023-05-02T00:26:22;11.98;;;5.45;;
33738;SDS011;20063;51.730;11.110;2023-05-02T00:28:47;13.75;;;5.30;;
33738;SDS011;20063;51.730;11.110;2023-05-02T00:31:13;16.80;;;5.85;;
33738;SDS011;20063;51.730;11.110;2023-05-02T00:33:39;10.35;;;5.40;;
33738;SDS011;20063;51.730;11.110;2023-05-02T00:36:12;11.10;;;5.20;;
33738;SDS011;20063;51.730;11.110;2023-05-02T00:38:38;10.63;;;5.43;;
33738;SDS011;20063;51.730;11.110;2023-05-02T00:41:04;18.48;;;6.57;;
33738;SDS011;20063;51.730;11.110;2023-05-02T00:43:33;18.05;;;6.40;;
33738;SDS011;20063;51.730;11.110;2023-05-02T00:45:58;12.02;;;5.72;;
33738;SDS011;20063;51.730;11.110;2023-05-02T00:48:24;17.27;;;5.65;;
33738;SDS011;20063;51.730;11.110;2023-05-02T00:50:50;18.85;;;6.45;;
33738;SDS011;20063;51.730;11.110;2023-05-02T00:53:16;11.48;;;5.68;;
33738;SDS011;20063;51.730;11.110;2023-05-02T00:55:44;13.15;;;5.50;;
33738;SDS011;20063;51.730;11.110;2023-05-02T00:58:11;14.52;;;5.40;;
33738;SDS011;20063;51.730;11.110;2023-05-02T01:03:31;20.63;;;5.70;;
33738;SDS011;20063;51.730;11.110;2023-05-02T01:14:28;11.25;;;4.80;;
33738;SDS011;20063;51.730;11.110;2023-05-02T01:16:55;9.02;;;4.38;;
33738;SDS011;20063;51.730;11.110;2023-05-02T01:19:28;9.95;;;4.82;;
33738;SDS011;20063;51.730;11.110;2023-05-02T01:22:01;13.23;;;5.10;;
33738;SDS011;20063;51.730;11.110;2023-05-02T01:24:34;9.63;;;4.95;;
33738;SDS011;20063;51.730;11.110;2023-05-02T01:30:45;15.55;;;5.05;;
33738;SDS011;20063;51.730;11.110;2023-05-02T01:33:14;10.10;;;4.55;;
33738;SDS011;20063;51.730;11.110;2023-05-02T01:35:41;11.27;;;4.10;;
33738;SDS011;20063;51.730;11.110;2023-05-02T01:38:08;15.35;;;4.60;;
33738;SDS011;20063;51.730;11.110;2023-05-02T01:40:36;8.70;;;3.95;;
33738;SDS011;20063;51.730;11.110;2023-05-02T01:43:03;11.85;;;4.50;;
33738;SDS011;20063;51.730;11.110;2023-05-02T01:45:31;10.35;;;4.53;;
33738;SDS011;20063;51.730;11.110;2023-05-02T01:48:05;8.95;;;4.25;;
33738;SDS011;20063;51.730;11.110;2023-05-02T01:50:33;8.25;;;3.90;;
33738;SDS011;20063;51.730;11.110;2023-05-02T01:53:00;6.57;;;3.78;;
33738;SDS011;20063;51.730;11.110;2023-05-02T01:55:28;9.60;;;3.75;;
33738;SDS011;20063;51.730;11.110;2023-05-02T01:57:55;11.05;;;3.92;;
33738;SDS011;20063;51.730;11.110;2023-05-02T02:00:21;6.20;;;4.10;;
33738;SDS011;20063;51.730;11.110;2023-05-02T02:02:49;9.82;;;3.70;;
33738;SDS011;20063;51.730;11.110;2023-05-02T02:05:17;9.52;;;4.22;;
33738;SDS011;20063;51.730;11.110;2023-05-02T02:07:44;6.97;;;3.95;;
33738;SDS011;20063;51.730;11.110;2023-05-02T02:10:10;7.05;;;4.10;;
33738;SDS011;20063;51.730;11.110;2023-05-02T02:12:44;5.00;;;3.38;;
33738;SDS011;20063;51.730;11.110;2023-05-02T02:15:20;6.35;;;3.45;;
33738;SDS011;20063;51.730;11.110;2023-05-02T02:20:25;9.90;;;4.53;;
33738;SDS011;20063;51.730;11.110;2023-05-02T02:22:56;9.43;;;3.83;;
33738;SDS011;20063;51.730;11.110;2023-05-02T02:25:24;10.50;;;4.43;;
33738;SDS011;20063;51.730;11.110;2023-05-02T02:27:51;5.50;;;3.75;;
33738;SDS011;20063;51.730;11.110;2023-05-02T02:30:17;9.73;;;3.85;;
33738;SDS011;20063;51.730;11.110;2023-05-02T02:32:43;11.85;;;5.30;;
33738;SDS011;20063;51.730;11.110;2023-05-02T02:35:08;12.63;;;4.22;;
33738;SDS011;20063;51.730;11.110;2023-05-02T02:37:36;9.77;;;4.65;;
33738;SDS011;20063;51.730;11.110;2023-05-02T02:40:40;7.70;;;4.85;;
33738;SDS011;20063;51.730;11.110;2023-05-02T02:43:26;7.38;;;4.55;;
33738;SDS011;20063;51.730;11.110;2023-05-02T02:54:57;7.43;;;3.78;;
33738;SDS011;20063;51.730;11.110;2023-05-02T02:57:36;8.25;;;4.20;;
33738;SDS011;20063;51.730;11.110;2023-05-02T03:00:18;9.65;;;4.85;;
33738;SDS011;20063;51.730;11.110;2023-05-02T03:02:46;7.00;;;3.83;;
33738;SDS011;20063;51.730;11.110;2023-05-02T03:05:12;7.07;;;4.50;;
33738;SDS011;20063;51.730;11.110;2023-05-02T03:07:39;5.88;;;3.53;;
33738;SDS011;20063;51.730;11.110;2023-05-02T03:10:05;6.97;;;3.72;;
33738;SDS011;20063;51.730;11.110;2023-05-02T03:12:32;5.57;;;4.00;;
33738;SDS011;20063;51.730;11.110;2023-05-02T03:17:56;11.00;;;4.70;;
33738;SDS011;20063;51.730;11.110;2023-05-02T03:20:22;5.82;;;3.55;;
33738;SDS011;20063;51.730;11.110;2023-05-02T03:22:48;6.72;;;3.60;;
33738;SDS011;20063;51.730;11.110;2023-05-02T03:25:13;9.15;;;4.00;;
33738;SDS011;20063;51.730;11.110;2023-05-02T03:27:39;8.00;;;4.30;;
33738;SDS011;20063;51.730;11.110;2023-05-02T03:30:05;9.25;;;3.80;;
33738;SDS011;20063;51.730;11.110;2023-05-02T03:32:32;7.22;;;3.20;;
33738;SDS011;20063;51.730;11.110;2023-05-02T03:34:57;5.72;;;3.92;;
33738;SDS011;20063;51.730;11.110;2023-05-02T03:37:24;6.25;;;3.22;;
33738;SDS011;20063;51.730;11.110;2023-05-02T03:39:49;5.10;;;3.20;;
33738;SDS011;20063;51.730;11.110;2023-05-02T03:42:15;9.70;;;3.28;;
33738;SDS011;20063;51.730;11.110;2023-05-02T03:44:40;7.72;;;3.50;;
33738;SDS011;20063;51.730;11.110;2023-05-02T03:47:06;7.25;;;3.67;;
33738;SDS011;20063;51.730;11.110;2023-05-02T03:49:34;8.77;;;3.78;;
33738;SDS011;20063;51.730;11.110;2023-05-02T03:52:00;6.00;;;3.15;;
33738;SDS011;20063;51.730;11.110;2023-05-02T03:54:26;5.13;;;3.08;;
33738;SDS011;20063;51.730;11.110;2023-05-02T03:56:54;10.38;;;3.67;;
33738;SDS011;20063;51.730;11.110;2023-05-02T03:59:20;5.60;;;3.15;;
33738;SDS011;20063;51.730;11.110;2023-05-02T04:01:48;11.18;;;3.10;;
33738;SDS011;20063;51.730;11.110;2023-05-02T04:04:14;10.50;;;3.78;;
33738;SDS011;20063;51.730;11.110;2023-05-02T04:06:40;7.80;;;3.63;;
33738;SDS011;20063;51.730;11.110;2023-05-02T04:09:09;11.57;;;3.15;;
33738;SDS011;20063;51.730;11.110;2023-05-02T04:11:34;7.38;;;4.20;;
33738;SDS011;20063;51.730;11.110;2023-05-02T04:14:00;22.67;;;4.38;;
33738;SDS011;20063;51.730;11.110;2023-05-02T04:16:26;7.57;;;3.85;;
33738;SDS011;20063;51.730;11.110;2023-05-02T04:18:51;14.35;;;5.38;;
33738;SDS011;20063;51.730;11.110;2023-05-02T04:21:17;9.70;;;3.63;;
33738;SDS011;20063;51.730;11.110;2023-05-02T04:23:42;7.90;;;3.67;;
33738;SDS011;20063;51.730;11.110;2023-05-02T04:26:08;8.18;;;3.90;;
33738;SDS011;20063;51.730;11.110;2023-05-02T04:28:34;12.52;;;4.35;;
33738;SDS011;20063;51.730;11.110;2023-05-02T04:30:59;12.88;;;4.93;;
33738;SDS011;20063;51.730;11.110;2023-05-02T04:33:26;16.38;;;5.22;;
33738;SDS011;20063;51.730;11.110;2023-05-02T04:35:51;14.77;;;5.13;;
33738;SDS011;20063;51.730;11.110;2023-05-02T04:38:17;18.10;;;4.95;;
33738;SDS011;20063;51.730;11.110;2023-05-02T04:40:42;10.93;;;5.22;;
33738;SDS011;20063;51.730;11.110;2023-05-02T04:43:08;12.55;;;6.18;;
33738;SDS011;20063;51.730;11.110;2023-05-02T04:45:34;12.93;;;5.95;;
33738;SDS011;20063;51.730;11.110;2023-05-02T04:48:00;10.15;;;5.07;;
33738;SDS011;20063;51.730;11.110;2023-05-02T04:50:26;27.27;;;8.70;;
33738;SDS011;20063;51.730;11.110;2023-05-02T04:52:54;29.52;;;14.70;;
33738;SDS011;20063;51.730;11.110;2023-05-02T04:55:20;29.67;;;17.20;;
33738;SDS011;20063;51.730;11.110;2023-05-02T04:57:46;37.67;;;20.63;;
33738;SDS011;20063;51.730;11.110;2023-05-02T05:00:11;31.65;;;18.90;;
33738;SDS011;20063;51.730;11.110;2023-05-02T05:02:38;44.45;;;20.70;;
33738;SDS011;20063;51.730;11.110;2023-05-02T05:05:04;34.58;;;20.33;;
33738;SDS011;20063;51.730;11.110;2023-05-02T05:07:32;32.88;;;18.80;;
33738;SDS011;20063;51.730;11.110;2023-05-02T05:09:58;34.42;;;20.33;;
33738;SDS011;20063;51.730;11.110;2023-05-02T05:12:23;31.20;;;19.05;;
33738;SDS011;20063;51.730;11.110;2023-05-02T05:14:49;43.60;;;20.08;;
33738;SDS011;20063;51.730;11.110;2023-05-02T05:17:15;32.10;;;19.10;;
33738;SDS011;20063;51.730;11.110;2023-05-02T05:19:41;28.95;;;17.40;;
33738;SDS011;20063;51.730;11.110;2023-05-02T05:22:06;34.08;;;18.25;;
33738;SDS011;20063;51.730;11.110;2023-05-02T05:24:32;34.10;;;18.15;;
33738;SDS011;20063;51.730;11.110;2023-05-02T05:26:58;36.95;;;19.55;;
33738;SDS011;20063;51.730;11.110;2023-05-02T05:29:23;29.85;;;15.48;;
33738;SDS011;20063;51.730;11.110;2023-05-02T05:31:49;33.88;;;18.23;;
33738;SDS011;20063;51.730;11.110;2023-05-02T05:34:15;29.63;;;16.55;;
33738;SDS011;20063;51.730;11.110;2023-05-02T05:36:41;25.83;;;16.25;;
33738;SDS011;20063;51.730;11.110;2023-05-02T05:39:07;32.78;;;18.20;;
33738;SDS011;20063;51.730;11.110;2023-05-02T05:41:32;32.67;;;18.33;;
33738;SDS011;20063;51.730;11.110;2023-05-02T05:43:59;26.90;;;16.88;;
33738;SDS011;20063;51.730;11.110;2023-05-02T05:46:25;33.90;;;17.13;;
33738;SDS011;20063;51.730;11.110;2023-05-02T05:48:50;32.13;;;16.83;;
33738;SDS011;20063;51.730;11.110;2023-05-02T05:51:16;25.98;;;16.55;;
33738;SDS011;20063;51.730;11.110;2023-05-02T05:53:41;33.17;;;16.77;;
33738;SDS011;20063;51.730;11.110;2023-05-02T05:56:08;35.60;;;17.10;;
33738;SDS011;20063;51.730;11.110;2023-05-02T05:58:34;32.70;;;16.83;;
33738;SDS011;20063;51.730;11.110;2023-05-02T06:01:00;41.13;;;19.85;;
33738;SDS011;20063;51.730;11.110;2023-05-02T06:03:26;36.25;;;19.90;;
33738;SDS011;20063;51.730;11.110;2023-05-02T06:05:51;43.33;;;21.88;;
33738;SDS011;20063;51.730;11.110;2023-05-02T06:08:20;35.88;;;21.38;;
33738;SDS011;20063;51.730;11.110;2023-05-02T06:10:46;34.92;;;22.02;;
33738;SDS011;20063;51.730;11.110;2023-05-02T06:13:11;42.08;;;22.83;;
33738;SDS011;20063;51.730;11.110;2023-05-02T06:15:37;40.58;;;21.80;;
33738;SDS011;20063;51.730;11.110;2023-05-02T06:18:02;36.25;;;21.60;;
33738;SDS011;20063;51.730;11.110;2023-05-02T06:20:28;39.88;;;23.17;;
33738;SDS011;20063;51.730;11.110;2023-05-02T06:22:54;46.70;;;24.17;;
33738;SDS011;20063;51.730;11.110;2023-05-02T06:25:19;32.53;;;21.10;;
33738;SDS011;20063;51.730;11.110;2023-05-02T06:27:45;29.52;;;17.25;;
33738;SDS011;20063;51.730;11.110;2023-05-02T06:30:11;27.73;;;16.00;;
33738;SDS011;20063;51.730;11.110;2023-05-02T06:32:37;32.30;;;17.30;;
33738;SDS011;20063;51.730;11.110;2023-05-02T06:35:02;25.13;;;15.10;;
33738;SDS011;20063;51.730;11.110;2023-05-02T06:37:31;23.42;;;14.70;;
33738;SDS011;20063;51.730;11.110;2023-05-02T06:39:59;26.45;;;14.90;;
33738;SDS011;20063;51.730;11.110;2023-05-02T06:42:25;22.92;;;13.88;;
33738;SDS011;20063;51.730;11.110;2023-05-02T06:44:51;27.27;;;14.75;;
33738;SDS011;20063;51.730;11.110;2023-05-02T06:47:17;27.80;;;15.13;;
33738;SDS011;20063;51.730;11.110;2023-05-02T06:49:42;22.52;;;13.00;;
33738;SDS011;20063;51.730;11.110;2023-05-02T06:52:08;26.45;;;12.90;;
33738;SDS011;20063;51.730;11.110;2023-05-02T06:54:33;21.88;;;14.18;;
33738;SDS011;20063;51.730;11.110;2023-05-02T06:56:59;22.20;;;13.90;;
33738;SDS011;20063;51.730;11.110;2023-05-02T06:59:26;23.02;;;13.88;;
33738;SDS011;20063;51.730;11.110;2023-05-02T07:01:51;24.23;;;13.88;;
33738;SDS011;20063;51.730;11.110;2023-05-02T07:04:17;27.63;;;15.68;;
33738;SDS011;20063;51.730;11.110;2023-05-02T07:06:43;24.70;;;15.30;;
33738;SDS011;20063;51.730;11.110;2023-05-02T07:09:09;27.52;;;14.30;;
33738;SDS011;20063;51.730;11.110;2023-05-02T07:11:35;27.42;;;15.57;;
33738;SDS011;20063;51.730;11.110;2023-05-02T07:14:01;27.65;;;15.85;;
33738;SDS011;20063;51.730;11.110;2023-05-02T07:16:26;27.20;;;13.23;;
33738;SDS011;20063;51.730;11.110;2023-05-02T07:18:52;25.98;;;13.63;;
33738;SDS011;20063;51.730;11.110;2023-05-02T07:21:18;23.65;;;14.48;;
33738;SDS011;20063;51.730;11.110;2023-05-02T07:23:43;19.90;;;12.88;;
33738;SDS011;20063;51.730;11.110;2023-05-02T07:26:09;25.83;;;16.30;;
33738;SDS011;20063;51.730;11.110;2023-05-02T07:28:35;30.25;;;15.10;;
33738;SDS011;20063;51.730;11.110;2023-05-02T07:31:00;31.95;;;16.08;;
33738;SDS011;20063;51.730;11.110;2023-05-02T07:33:26;30.25;;;15.32;;
33738;SDS011;20063;51.730;11.110;2023-05-02T07:35:51;30.10;;;14.15;;
33738;SDS011;20063;51.730;11.110;2023-05-02T07:38:17;24.13;;;13.88;;
33738;SDS011;20063;51.730;11.110;2023-05-02T07:40:45;24.30;;;14.25;;
33738;SDS011;20063;51.730;11.110;2023-05-02T07:43:11;25.60;;;13.63;;
33738;SDS011;20063;51.730;11.110;2023-05-02T07:45:38;23.73;;;13.05;;
33738;SDS011;20063;51.730;11.110;2023-05-02T07:48:03;19.42;;;11.32;;
33738;SDS011;20063;51.730;11.110;2023-05-02T07:50:29;22.88;;;11.65;;
33738;SDS011;20063;51.730;11.110;2023-05-02T07:52:54;23.17;;;13.38;;
33738;SDS011;20063;51.730;11.110;2023-05-02T07:55:20;21.13;;;12.85;;
33738;SDS011;20063;51.730;11.110;2023-05-02T07:57:46;25.95;;;13.25;;
33738;SDS011;20063;51.730;11.110;2023-05-02T08:00:12;28.17;;;14.32;;
33738;SDS011;20063;51.730;11.110;2023-05-02T08:02:38;26.60;;;15.40;;
33738;SDS011;20063;51.730;11.110;2023-05-02T08:05:05;31.92;;;16.60;;
33738;SDS011;20063;51.730;11.110;2023-05-02T08:07:31;26.90;;;15.75;;
33738;SDS011;20063;51.730;11.110;2023-05-02T08:09:59;29.95;;;16.00;;
33738;SDS011;20063;51.730;11.110;2023-05-02T08:12:25;29.08;;;16.25;;
33738;SDS011;20063;51.730;11.110;2023-05-02T08:14:51;28.33;;;15.38;;
33738;SDS011;20063;51.730;11.110;2023-05-02T08:17:16;28.38;;;17.08;;
33738;SDS011;20063;51.730;11.110;2023-05-02T08:19:42;31.65;;;17.27;;
33738;SDS011;20063;51.730;11.110;2023-05-02T08:22:08;32.60;;;15.48;;
33738;SDS011;20063;51.730;11.110;2023-05-02T08:24:33;23.98;;;14.02;;
33738;SDS011;20063;51.730;11.110;2023-05-02T08:26:59;22.13;;;13.13;;
33738;SDS011;20063;51.730;11.110;2023-05-02T08:29:29;20.88;;;13.32;;
33738;SDS011;20063;51.730;11.110;2023-05-02T08:31:55;16.85;;;11.35;;
33738;SDS011;20063;51.730;11.110;2023-05-02T08:34:21;19.52;;;11.93;;
33738;SDS011;20063;51.730;11.110;2023-05-02T08:36:46;16.52;;;10.40;;
33738;SDS011;20063;51.730;11.110;2023-05-02T08:39:12;20.92;;;12.20;;
33738;SDS011;20063;51.730;11.110;2023-05-02T08:41:37;18.02;;;10.70;;
33738;SDS011;20063;51.730;11.110;2023-05-02T08:44:04;15.80;;;10.23;;
33738;SDS011;20063;51.730;11.110;2023-05-02T08:46:34;18.13;;;11.10;;
33738;SDS011;20063;51.730;11.110;2023-05-02T08:49:00;17.55;;;9.80;;
33738;SDS011;20063;51.730;11.110;2023-05-02T08:51:27;19.67;;;10.82;;
33738;SDS011;20063;51.730;11.110;2023-05-02T08:53:57;15.80;;;9.63;;
33738;SDS011;20063;51.730;11.110;2023-05-02T08:56:23;12.68;;;7.75;;
33738;SDS011;20063;51.730;11.110;2023-05-02T08:58:50;9.50;;;6.80;;
33738;SDS011;20063;51.730;11.110;2023-05-02T09:01:16;13.40;;;6.60;;
33738;SDS011;20063;51.730;11.110;2023-05-02T09:03:44;8.70;;;5.57;;
33738;SDS011;20063;51.730;11.110;2023-05-02T09:06:11;6.80;;;4.85;;
33738;SDS011;20063;51.730;11.110;2023-05-02T09:08:39;12.50;;;5.88;;
33738;SDS011;20063;51.730;11.110;2023-05-02T09:11:07;6.05;;;4.40;;
33738;SDS011;20063;51.730;11.110;2023-05-02T09:13:44;7.78;;;4.32;;
33738;SDS011;20063;51.730;11.110;2023-05-02T09:16:15;5.18;;;4.20;;
33738;SDS011;20063;51.730;11.110;2023-05-02T09:18:52;8.75;;;4.55;;
33738;SDS011;20063;51.730;11.110;2023-05-02T09:21:20;8.60;;;4.68;;
33738;SDS011;20063;51.730;11.110;2023-05-02T09:24:00;10.45;;;4.82;;
33738;SDS011;20063;51.730;11.110;2023-05-02T09:26:28;8.70;;;4.40;;
33738;SDS011;20063;51.730;11.110;2023-05-02T09:29:02;7.40;;;4.72;;
33738;SDS011;20063;51.730;11.110;2023-05-02T09:31:35;12.35;;;5.00;;
33738;SDS011;20063;51.730;11.110;2023-05-02T09:34:11;8.98;;;4.93;;
33738;SDS011;20063;51.730;11.110;2023-05-02T09:36:48;8.15;;;4.80;;
33738;SDS011;20063;51.730;11.110;2023-05-02T09:39:18;9.25;;;5.15;;
33738;SDS011;20063;51.730;11.110;2023-05-02T09:41:48;12.13;;;5.40;;
33738;SDS011;20063;51.730;11.110;2023-05-02T09:44:15;11.38;;;5.75;;
33738;SDS011;20063;51.730;11.110;2023-05-02T09:46:49;14.07;;;5.60;;
33738;SDS011;20063;51.730;11.110;2023-05-02T09:49:17;9.93;;;5.28;;
33738;SDS011;20063;51.730;11.110;2023-05-02T09:51:44;9.13;;;4.75;;
33738;SDS011;20063;51.730;11.110;2023-05-02T09:54:12;15.55;;;7.82;;
33738;SDS011;20063;51.730;11.110;2023-05-02T09:56:52;10.95;;;6.28;;
33738;SDS011;20063;51.730;11.110;2023-05-02T09:59:19;12.10;;;6.53;;
33738;SDS011;20063;51.730;11.110;2023-05-02T10:01:44;15.23;;;7.38;;
33738;SDS011;20063;51.730;11.110;2023-05-02T10:04:17;13.50;;;7.50;;
33738;SDS011;20063;51.730;11.110;2023-05-02T10:06:43;14.60;;;8.15;;
33738;SDS011;20063;51.730;11.110;2023-05-02T10:09:09;14.40;;;7.13;;
33738;SDS011;20063;51.730;11.110;2023-05-02T10:11:41;16.65;;;9.35;;
33738;SDS011;20063;51.730;11.110;2023-05-02T10:14:08;14.30;;;9.68;;
33738;SDS011;20063;51.730;11.110;2023-05-02T10:16:35;24.50;;;12.88;;
33738;SDS011;20063;51.730;11.110;2023-05-02T10:19:06;21.48;;;14.05;;
33738;SDS011;20063;51.730;11.110;2023-05-02T10:21:34;28.92;;;16.23;;
33738;SDS011;20063;51.730;11.110;2023-05-02T10:24:01;31.42;;;15.40;;
33738;SDS011;20063;51.730;11.110;2023-05-02T10:26:28;28.00;;;15.68;;
33738;SDS011;20063;51.730;11.110;2023-05-02T10:28:57;23.70;;;15.93;;
33738;SDS011;20063;51.730;11.110;2023-05-02T10:31:23;25.48;;;15.75;;
33738;SDS011;20063;51.730;11.110;2023-05-02T10:33:50;25.85;;;15.52;;
33738;SDS011;20063;51.730;11.110;2023-05-02T10:36:19;23.17;;;15.10;;
33738;SDS011;20063;51.730;11.110;2023-05-02T10:38:46;27.55;;;14.15;;
33738;SDS011;20063;51.730;11.110;2023-05-02T10:41:13;25.73;;;13.88;;
33738;SDS011;20063;51.730;11.110;2023-05-02T10:43:46;23.33;;;11.30;;
33738;SDS011;20063;51.730;11.110;2023-05-02T10:49:02;22.52;;;12.48;;
33738;SDS011;20063;51.730;11.110;2023-05-02T10:51:33;19.45;;;12.52;;
33738;SDS011;20063;51.730;11.110;2023-05-02T10:59:40;31.70;;;11.38;;
33738;SDS011;20063;51.730;11.110;2023-05-02T11:05:06;28.83;;;10.73;;
33738;SDS011;20063;51.730;11.110;2023-05-02T11:07:33;26.17;;;11.15;;
33738;SDS011;20063;51.730;11.110;2023-05-02T11:12:55;29.05;;;10.70;;
33738;SDS011;20063;51.730;11.110;2023-05-02T11:20:41;30.38;;;10.20;;
33738;SDS011;20063;51.730;11.110;2023-05-02T11:25:46;42.90;;;10.60;;
33738;SDS011;20063;51.730;11.110;2023-05-02T11:31:00;27.25;;;10.05;;
33738;SDS011;20063;51.730;11.110;2023-05-02T11:33:27;35.05;;;8.85;;
33738;SDS011;20063;51.730;11.110;2023-05-02T11:35:53;42.13;;;9.95;;
33738;SDS011;20063;51.730;11.110;2023-05-02T11:38:22;29.25;;;8.35;;
33738;SDS011;20063;51.730;11.110;2023-05-02T11:43:17;52.22;;;10.35;;
33738;SDS011;20063;51.730;11.110;2023-05-02T11:45:44;32.22;;;10.75;;
33738;SDS011;20063;51.730;11.110;2023-05-02T11:48:10;37.05;;;10.93;;
33738;SDS011;20063;51.730;11.110;2023-05-02T11:50:44;31.27;;;10.30;;
33738;SDS011;20063;51.730;11.110;2023-05-02T11:53:10;36.40;;;10.98;;
33738;SDS011;20063;51.730;11.110;2023-05-02T11:55:46;35.40;;;10.95;;
33738;SDS011;20063;51.730;11.110;2023-05-02T11:58:17;28.58;;;10.25;;
33738;SDS011;20063;51.730;11.110;2023-05-02T12:00:48;28.55;;;10.60;;
33738;SDS011;20063;51.730;11.110;2023-05-02T12:03:18;31.00;;;10.75;;
33738;SDS011;20063;51.730;11.110;2023-05-02T12:05:44;31.15;;;10.80;;
33738;SDS011;20063;51.730;11.110;2023-05-02T12:08:16;25.70;;;9.48;;
33738;SDS011;20063;51.730;11.110;2023-05-02T12:10:49;29.20;;;10.65;;
33738;SDS011;20063;51.730;11.110;2023-05-02T12:13:19;32.92;;;11.35;;
33738;SDS011;20063;51.730;11.110;2023-05-02T12:15:47;35.22;;;10.13;;
33738;SDS011;20063;51.730;11.110;2023-05-02T12:18:14;36.95;;;9.75;;
33738;SDS011;20063;51.730;11.110;2023-05-02T12:20:41;31.05;;;10.73;;
33738;SDS011;20063;51.730;11.110;2023-05-02T12:23:07;28.20;;;10.13;;
33738;SDS011;20063;51.730;11.110;2023-05-02T12:25:40;35.13;;;11.55;;
33738;SDS011;20063;51.730;11.110;2023-05-02T12:28:06;49.38;;;12.02;;
33738;SDS011;20063;51.730;11.110;2023-05-02T12:30:36;33.53;;;9.65;;
33738;SDS011;20063;51.730;11.110;2023-05-02T12:33:04;27.23;;;10.07;;
33738;SDS011;20063;51.730;11.110;2023-05-02T12:35:30;22.73;;;8.50;;
33738;SDS011;20063;51.730;11.110;2023-05-02T12:38:13;33.20;;;9.93;;
33738;SDS011;20063;51.730;11.110;2023-05-02T12:43:16;33.38;;;7.45;;
33738;SDS011;20063;51.730;11.110;2023-05-02T12:45:43;33.08;;;8.05;;
33738;SDS011;20063;51.730;11.110;2023-05-02T12:48:22;27.27;;;7.10;;
33738;SDS011;20063;51.730;11.110;2023-05-02T12:50:50;36.75;;;8.43;;
33738;SDS011;20063;51.730;11.110;2023-05-02T12:53:16;26.63;;;7.40;;
33738;SDS011;20063;51.730;11.110;2023-05-02T12:55:42;33.10;;;8.95;;
33738;SDS011;20063;51.730;11.110;2023-05-02T12:58:09;25.80;;;7.50;;
33738;SDS011;20063;51.730;11.110;2023-05-02T13:00:38;36.97;;;7.63;;
33738;SDS011;20063;51.730;11.110;2023-05-02T13:03:05;32.33;;;8.25;;
33738;SDS011;20063;51.730;11.110;2023-05-02T13:05:32;27.48;;;8.73;;
33738;SDS011;20063;51.730;11.110;2023-05-02T13:07:59;37.22;;;8.40;;
33738;SDS011;20063;51.730;11.110;2023-05-02T13:10:25;31.13;;;8.93;;
33738;SDS011;20063;51.730;11.110;2023-05-02T13:12:51;23.98;;;8.02;;
33738;SDS011;20063;51.730;11.110;2023-05-02T13:15:18;25.42;;;8.82;;
33738;SDS011;20063;51.730;11.110;2023-05-02T13:17:44;20.63;;;8.13;;
33738;SDS011;20063;51.730;11.110;2023-05-02T13:20:10;36.90;;;9.40;;
33738;SDS011;20063;51.730;11.110;2023-05-02T13:22:36;33.55;;;8.15;;
33738;SDS011;20063;51.730;11.110;2023-05-02T13:25:02;34.35;;;9.45;;
33738;SDS011;20063;51.730;11.110;2023-05-02T13:27:28;27.40;;;9.27;;
33738;SDS011;20063;51.730;11.110;2023-05-02T13:29:54;25.92;;;8.43;;
33738;SDS011;20063;51.730;11.110;2023-05-02T13:32:20;21.80;;;9.45;;
33738;SDS011;20063;51.730;11.110;2023-05-02T13:34:46;27.45;;;9.48;;
33738;SDS011;20063;51.730;11.110;2023-05-02T13:37:11;26.60;;;8.32;;
33738;SDS011;20063;51.730;11.110;2023-05-02T13:39:37;41.67;;;10.25;;
33738;SDS011;20063;51.730;11.110;2023-05-02T13:42:02;23.73;;;8.50;;
33738;SDS011;20063;51.730;11.110;2023-05-02T13:44:29;31.10;;;9.40;;
33738;SDS011;20063;51.730;11.110;2023-05-02T13:46:55;42.85;;;9.82;;
33738;SDS011;20063;51.730;11.110;2023-05-02T13:49:21;21.55;;;8.35;;
33738;SDS011;20063;51.730;11.110;2023-05-02T13:51:46;29.85;;;8.52;;
33738;SDS011;20063;51.730;11.110;2023-05-02T13:54:15;32.22;;;10.10;;
33738;SDS011;20063;51.730;11.110;2023-05-02T13:56:41;33.70;;;9.38;;
33738;SDS011;20063;51.730;11.110;2023-05-02T13:59:07;21.92;;;8.43;;
33738;SDS011;20063;51.730;11.110;2023-05-02T14:01:33;16.80;;;7.70;;
33738;SDS011;20063;51.730;11.110;2023-05-02T14:03:59;29.15;;;8.70;;
33738;SDS011;20063;51.730;11.110;2023-05-02T14:06:30;19.55;;;7.40;;
33738;SDS011;20063;51.730;11.110;2023-05-02T14:08:56;21.15;;;6.75;;
33738;SDS011;20063;51.730;11.110;2023-05-02T14:11:22;14.95;;;7.18;;
33738;SDS011;20063;51.730;11.110;2023-05-02T14:13:51;15.27;;;5.40;;
33738;SDS011;20063;51.730;11.110;2023-05-02T14:16:17;10.85;;;5.05;;
33738;SDS011;20063;51.730;11.110;2023-05-02T14:18:43;28.05;;;6.28;;
33738;SDS011;20063;51.730;11.110;2023-05-02T14:21:13;18.88;;;6.68;;
33738;SDS011;20063;51.730;11.110;2023-05-02T14:23:40;20.42;;;6.13;;
33738;SDS011;20063;51.730;11.110;2023-05-02T14:26:05;19.38;;;5.28;;
33738;SDS011;20063;51.730;11.110;2023-05-02T14:28:31;18.10;;;6.03;;
33738;SDS011;20063;51.730;11.110;2023-05-02T14:31:00;14.75;;;5.50;;
33738;SDS011;20063;51.730;11.110;2023-05-02T14:33:26;15.75;;;5.85;;
33738;SDS011;20063;51.730;11.110;2023-05-02T14:35:52;22.42;;;5.72;;
33738;SDS011;20063;51.730;11.110;2023-05-02T14:38:19;22.52;;;5.88;;
33738;SDS011;20063;51.730;11.110;2023-05-02T14:40:44;21.70;;;6.47;;
33738;SDS011;20063;51.730;11.110;2023-05-02T14:43:10;12.95;;;5.13;;
33738;SDS011;20063;51.730;11.110;2023-05-02T14:45:36;19.00;;;5.63;;
33738;SDS011;20063;51.730;11.110;2023-05-02T14:48:01;16.35;;;5.05;;
33738;SDS011;20063;51.730;11.110;2023-05-02T14:50:27;20.83;;;5.15;;
33738;SDS011;20063;51.730;11.110;2023-05-02T14:52:52;15.75;;;5.05;;
33738;SDS011;20063;51.730;11.110;2023-05-02T14:55:18;24.20;;;5.70;;
33738;SDS011;20063;51.730;11.110;2023-05-02T14:57:44;17.50;;;5.82;;
33738;SDS011;20063;51.730;11.110;2023-05-02T15:00:09;12.05;;;4.40;;
33738;SDS011;20063;51.730;11.110;2023-05-02T15:02:35;16.63;;;4.70;;
33738;SDS011;20063;51.730;11.110;2023-05-02T15:05:04;14.73;;;5.10;;
33738;SDS011;20063;51.730;11.110;2023-05-02T15:07:31;23.02;;;5.10;;
33738;SDS011;20063;51.730;11.110;2023-05-02T15:09:58;15.30;;;5.00;;
33738;SDS011;20063;51.730;11.110;2023-05-02T15:12:24;11.60;;;4.18;;
33738;SDS011;20063;51.730;11.110;2023-05-02T15:14:50;16.80;;;5.05;;
33738;SDS011;20063;51.730;11.110;2023-05-02T15:17:16;19.65;;;5.47;;
33738;SDS011;20063;51.730;11.110;2023-05-02T15:19:41;18.23;;;5.60;;